Time;durP1;ratioP1;P1;durP2;ratioP2;P2;SDS_P1;SDS_P2;PMS_P1;PMS_P2;Temp;Humidity;BMP_temperature;BMP_pressure;BME280_temperature;BME280_humidity;BME280_pressure;Samples;Min_cycle;Max_cycle;Signal;HPM_P1;HPM_P2
2022/12/25 00:00:09;;;;;;;18.58;9.13;;;16.30;91.50;;;;;;5050439;28;20060;-85
2022/12/25 00:02:35;;;;;;;20.35;9.48;;;16.30;91.50;;;;;;5045161;28;20032;-84
2022/12/25 00:05:00;;;;;;;25.25;9.05;;;16.30;91.60;;;;;;5051328;28;20029;-85
2022/12/25 00:07:26;;;;;;;17.73;8.32;;;16.30;91.60;;;;;;5050412;28;20049;-85
2022/12/25 00:09:51;;;;;;;21.70;8.18;;;16.30;91.60;;;;;;5043634;28;20021;-85
2022/12/25 00:12:18;;;;;;;19.45;8.75;;;16.30;91.60;;;;;;5051135;28;20116;-84
2022/12/25 00:14:44;;;;;;;22.23;8.40;;;16.30;91.60;;;;;;5045240;28;20628;-84
2022/12/25 00:17:09;;;;;;;20.25;9.23;;;16.30;91.60;;;;;;5049332;28;20036;-85
2022/12/25 00:19:35;;;;;;;21.00;8.43;;;16.30;91.60;;;;;;5058661;28;20028;-84
2022/12/25 00:22:00;;;;;;;18.65;8.00;;;16.30;91.60;;;;;;5071019;28;20041;-85
2022/12/25 00:24:26;;;;;;;15.02;7.70;;;16.30;91.70;;;;;;5060200;28;20067;-85
2022/12/25 00:26:51;;;;;;;16.17;7.80;;;16.30;91.60;;;;;;5054812;28;20486;-85
2022/12/25 00:29:17;;;;;;;16.23;7.85;;;16.30;91.70;;;;;;5050885;28;20017;-85
2022/12/25 00:31:43;;;;;;;21.30;8.93;;;16.30;91.70;;;;;;5049958;28;20025;-85
2022/12/25 00:34:08;;;;;;;17.88;8.30;;;16.20;91.70;;;;;;5050781;28;20510;-84
2022/12/25 00:36:34;;;;;;;17.15;7.85;;;16.30;91.70;;;;;;5050371;28;20458;-85
2022/12/25 00:38:59;;;;;;;18.73;8.60;;;16.30;91.70;;;;;;5050685;28;20499;-85
2022/12/25 00:44:12;;;;;;;18.08;8.20;;;16.20;91.70;;;;;;5059074;28;20031;-85
2022/12/25 00:46:38;;;;;;;14.02;7.80;;;16.20;91.80;;;;;;5054383;28;20024;-85
2022/12/25 00:49:04;;;;;;;20.65;8.00;;;16.20;91.70;;;;;;5050719;28;20051;-84
2022/12/25 00:51:30;;;;;;;24.58;8.35;;;16.30;91.80;;;;;;5059852;28;20059;-85
2022/12/25 00:53:55;;;;;;;16.17;7.47;;;16.30;91.80;;;;;;5032966;28;20053;-85
2022/12/25 00:56:21;;;;;;;21.02;7.97;;;16.30;91.80;;;;;;5049863;28;20566;-84
2022/12/25 00:58:47;;;;;;;15.85;7.30;;;16.30;91.80;;;;;;5058928;28;20504;-85
2022/12/25 01:01:12;;;;;;;12.90;6.93;;;16.30;91.80;;;;;;5039528;28;20449;-85
2022/12/25 01:03:38;;;;;;;18.38;7.55;;;16.30;91.80;;;;;;5049518;28;20025;-86
2022/12/25 01:06:06;;;;;;;16.88;7.47;;;16.30;91.80;;;;;;5050447;28;20053;-84
2022/12/25 01:08:34;;;;;;;21.10;7.63;;;16.30;91.90;;;;;;5048342;28;20116;-84
2022/12/25 01:11:05;;;;;;;18.02;7.53;;;16.30;91.90;;;;;;5051665;28;20021;-84
2022/12/25 01:13:33;;;;;;;22.48;7.85;;;16.20;91.80;;;;;;5051464;28;20036;-85
2022/12/25 01:16:08;;;;;;;18.75;7.85;;;16.20;91.80;;;;;;5047705;28;20063;-84
2022/12/25 01:18:34;;;;;;;26.17;7.30;;;16.30;91.90;;;;;;5043543;28;20033;-84
2022/12/25 01:21:09;;;;;;;20.33;7.00;;;16.30;91.90;;;;;;5050120;28;20029;-84
2022/12/25 01:23:34;;;;;;;15.60;6.68;;;16.20;92.20;;;;;;5050739;28;20025;-84
2022/12/25 01:26:04;;;;;;;21.65;7.32;;;16.20;91.90;;;;;;5048427;28;20074;-84
2022/12/25 01:28:30;;;;;;;15.20;6.97;;;16.20;91.90;;;;;;5051808;28;20035;-84
2022/12/25 01:30:55;;;;;;;18.48;7.15;;;16.20;91.90;;;;;;5053472;28;20021;-85
2022/12/25 01:33:21;;;;;;;20.15;7.43;;;16.20;91.90;;;;;;5054545;28;20036;-84
2022/12/25 01:35:46;;;;;;;22.55;7.70;;;16.20;92.00;;;;;;5066049;28;20028;-85
2022/12/25 01:38:12;;;;;;;18.20;6.40;;;16.30;92.00;;;;;;5057446;28;20021;-85
2022/12/25 01:40:38;;;;;;;15.27;6.82;;;16.20;92.00;;;;;;5054954;28;20474;-85
2022/12/25 01:43:05;;;;;;;23.55;7.43;;;16.20;92.00;;;;;;5060992;28;20025;-84
2022/12/25 01:45:43;;;;;;;15.95;6.95;;;16.30;92.00;;;;;;5063772;28;20021;-85
2022/12/25 01:48:15;;;;;;;19.23;7.10;;;16.30;92.00;;;;;;5066498;28;20071;-89
2022/12/25 01:50:46;;;;;;;15.35;7.00;;;16.20;92.00;;;;;;5053812;28;20504;-85
2022/12/25 01:53:12;;;;;;;13.77;6.93;;;16.30;92.20;;;;;;5066183;28;20028;-85
2022/12/25 01:55:40;;;;;;;14.90;6.07;;;16.20;92.30;;;;;;5037289;28;20054;-85
2022/12/25 01:58:05;;;;;;;17.77;7.15;;;16.30;92.40;;;;;;5053417;28;20029;-84
2022/12/25 02:00:31;;;;;;;12.10;6.18;;;16.30;92.50;;;;;;5053150;28;20513;-85
2022/12/25 02:02:57;;;;;;;12.38;6.43;;;16.30;92.50;;;;;;5052224;28;20501;-84
2022/12/25 02:05:28;;;;;;;10.93;5.90;;;16.30;92.50;;;;;;5053242;28;20025;-86
2022/12/25 02:07:56;;;;;;;14.88;6.43;;;16.30;92.50;;;;;;5052721;28;20379;-85
2022/12/25 02:10:22;;;;;;;23.10;6.85;;;16.30;92.50;;;;;;5052660;28;20029;-85
2022/12/25 02:12:48;;;;;;;20.48;7.38;;;16.30;92.90;;;;;;5052766;28;20517;-85
2022/12/25 02:15:18;;;;;;;21.27;7.40;;;16.30;92.90;;;;;;5064164;28;20075;-86
2022/12/25 02:17:59;;;;;;;14.18;6.85;;;16.30;92.90;;;;;;5057830;28;20033;-85
2022/12/25 02:20:40;;;;;;;19.90;6.80;;;16.30;92.80;;;;;;5052893;28;20075;-85
2022/12/25 02:23:41;;;;;;;33.58;7.45;;;16.30;92.60;;;;;;5057682;28;20493;-85
2022/12/25 02:26:28;;;;;;;16.70;7.13;;;16.30;92.50;;;;;;5033450;28;20364;-85
2022/12/25 02:29:41;;;;;;;17.13;7.45;;;16.30;92.60;;;;;;5049325;28;20021;-85
2022/12/25 02:32:22;;;;;;;22.08;6.68;;;16.30;92.50;;;;;;4970922;28;20049;-86
2022/12/25 02:35:23;;;;;;;17.00;6.35;;;16.30;92.50;;;;;;4992853;28;20043;-85
2022/12/25 02:37:51;;;;;;;22.65;6.43;;;16.30;92.50;;;;;;4992404;28;20068;-86
2022/12/25 02:40:32;;;;;;;20.10;6.32;;;16.30;92.50;;;;;;5000733;28;20037;-85
2022/12/25 03:08:21;;;;;;;18.92;6.20;;;16.30;92.60;;;;;;5051132;28;20111;-86
2022/12/25 03:13:47;;;;;;;16.70;5.88;;;16.30;92.60;;;;;;5053568;28;20039;-86
2022/12/25 03:27:34;;;;;;;16.48;6.03;;;16.20;92.70;;;;;;5036144;28;20056;-85
2022/12/25 03:33:26;;;;;;;16.40;5.97;;;16.30;92.70;;;;;;5030812;28;20032;-85
2022/12/25 03:36:26;;;;;;;16.73;5.63;;;16.30;92.80;;;;;;5018633;28;20041;-85
2022/12/25 04:38:19;;;;;;;18.48;5.40;;;16.30;92.90;;;;;;5052171;28;20098;-85
2022/12/25 04:40:45;;;;;;;18.80;5.10;;;16.30;92.90;;;;;;5051767;28;20044;-85
2022/12/25 04:43:11;;;;;;;14.50;4.70;;;16.20;93.00;;;;;;5052201;28;20049;-86
2022/12/25 04:45:36;;;;;;;12.20;4.68;;;16.30;93.30;;;;;;5051219;28;20107;-86
2022/12/25 04:48:02;;;;;;;10.70;4.38;;;16.30;93.10;;;;;;5050704;28;20025;-87
2022/12/25 04:50:27;;;;;;;10.95;4.57;;;16.30;93.00;;;;;;5045473;28;20029;-86
2022/12/25 04:52:53;;;;;;;17.25;4.63;;;16.30;93.00;;;;;;5051588;28;20028;-86
2022/12/25 04:55:19;;;;;;;16.08;4.53;;;16.20;93.00;;;;;;5058773;28;20043;-87
2022/12/25 04:57:44;;;;;;;10.07;4.38;;;16.30;92.90;;;;;;5065086;28;20040;-86
2022/12/25 05:00:10;;;;;;;14.52;5.10;;;16.20;92.90;;;;;;5061008;28;20032;-86
2022/12/25 05:02:35;;;;;;;13.52;5.22;;;16.20;92.90;;;;;;5053198;28;20074;-86
2022/12/25 05:05:01;;;;;;;11.70;5.20;;;16.30;92.80;;;;;;5051202;28;20410;-87
2022/12/25 05:07:27;;;;;;;17.05;4.85;;;16.30;92.80;;;;;;5054524;28;20497;-87
2022/12/25 05:09:52;;;;;;;17.27;4.32;;;16.20;92.80;;;;;;5054099;28;20056;-87
2022/12/25 05:12:18;;;;;;;10.60;4.35;;;16.20;92.70;;;;;;5055539;28;20035;-88
2022/12/25 05:14:43;;;;;;;16.20;4.80;;;16.30;92.80;;;;;;5060128;22;20095;-86
2022/12/25 05:17:09;;;;;;;13.65;5.40;;;16.20;92.80;;;;;;5025123;28;20029;-85
2022/12/25 05:19:34;;;;;;;12.65;4.57;;;16.20;92.80;;;;;;5034845;28;20032;-86
2022/12/25 05:22:00;;;;;;;10.63;3.70;;;16.20;92.80;;;;;;5037058;28;20103;-86
2022/12/25 05:24:27;;;;;;;24.48;4.38;;;16.20;92.80;;;;;;5054558;28;20049;-86
2022/12/25 05:26:53;;;;;;;16.38;4.05;;;16.20;92.80;;;;;;5035832;28;20048;-86
2022/12/25 05:29:18;;;;;;;9.30;4.00;;;16.20;92.80;;;;;;5037162;28;20021;-86
2022/12/25 05:31:44;;;;;;;15.82;4.63;;;16.20;92.80;;;;;;5036432;28;20031;-85
2022/12/25 05:34:09;;;;;;;9.25;3.63;;;16.20;92.80;;;;;;5053803;28;20133;-87
2022/12/25 05:36:35;;;;;;;11.68;4.47;;;16.20;92.80;;;;;;5036328;28;20155;-87
2022/12/25 05:39:01;;;;;;;14.38;3.88;;;16.20;92.70;;;;;;5036857;28;20029;-86
2022/12/25 05:41:26;;;;;;;7.35;3.35;;;16.20;92.70;;;;;;5028464;28;20029;-87
2022/12/25 05:43:52;;;;;;;12.27;3.78;;;16.20;92.80;;;;;;5034912;28;20502;-87
2022/12/25 05:46:17;;;;;;;10.00;3.22;;;16.20;92.90;;;;;;5035704;28;20494;-86
2022/12/25 05:48:43;;;;;;;7.82;3.40;;;16.20;92.90;;;;;;5034157;28;20040;-87
2022/12/25 05:51:11;;;;;;;11.52;3.85;;;16.20;92.90;;;;;;5068361;28;20029;-87
2022/12/25 05:53:38;;;;;;;8.43;3.47;;;16.20;92.80;;;;;;5035322;28;20033;-87
2022/12/25 05:56:05;;;;;;;12.77;4.10;;;16.20;92.90;;;;;;5035187;28;20021;-86
2022/12/25 05:58:33;;;;;;;5.30;3.10;;;16.30;92.90;;;;;;5036035;28;20021;-87
2022/12/25 06:00:58;;;;;;;9.20;3.40;;;16.30;92.90;;;;;;5036180;28;20110;-87
2022/12/25 06:03:24;;;;;;;9.88;3.85;;;16.30;92.90;;;;;;5034934;28;20103;-87
2022/12/25 06:05:50;;;;;;;11.57;3.75;;;16.30;93.00;;;;;;5034934;28;20043;-87
2022/12/25 06:08:16;;;;;;;6.97;3.38;;;16.30;92.90;;;;;;5053469;28;20417;-87
2022/12/25 06:10:41;;;;;;;6.55;3.25;;;16.30;92.90;;;;;;5035439;28;20025;-87
2022/12/25 06:13:07;;;;;;;10.13;3.92;;;16.30;92.80;;;;;;5053955;28;20417;-86
2022/12/25 06:15:33;;;;;;;9.43;3.60;;;16.30;92.90;;;;;;5051060;28;20457;-86
2022/12/25 06:18:00;;;;;;;20.13;3.53;;;16.40;93.00;;;;;;5035120;28;20028;-86
2022/12/25 06:20:26;;;;;;;8.60;3.22;;;16.30;93.00;;;;;;5034175;28;20017;-86
2022/12/25 06:22:51;;;;;;;12.82;3.08;;;16.40;92.90;;;;;;5035377;28;20019;-86
2022/12/25 06:25:17;;;;;;;7.82;2.45;;;16.40;92.90;;;;;;5032430;28;20121;-86
2022/12/25 06:27:42;;;;;;;7.05;2.60;;;16.40;92.90;;;;;;5034989;28;20049;-87
2022/12/25 06:30:08;;;;;;;7.85;2.78;;;16.40;92.80;;;;;;5034953;28;20033;-87
2022/12/25 06:32:34;;;;;;;14.52;2.63;;;16.40;92.70;;;;;;5053342;28;20080;-86
2022/12/25 06:34:59;;;;;;;9.30;3.10;;;16.40;92.80;;;;;;5034210;28;20485;-86
2022/12/25 06:37:25;;;;;;;9.43;3.53;;;16.40;92.80;;;;;;5035069;28;20501;-86
2022/12/25 06:39:51;;;;;;;8.13;2.83;;;16.50;92.80;;;;;;5030366;28;20048;-86
2022/12/25 06:42:16;;;;;;;5.95;2.65;;;16.50;92.80;;;;;;5053540;28;20036;-86
2022/12/25 06:44:42;;;;;;;7.90;2.13;;;16.50;92.70;;;;;;5034319;28;20214;-85
2022/12/25 06:47:07;;;;;;;5.70;2.38;;;16.50;92.70;;;;;;5034003;28;20122;-86
2022/12/25 06:49:33;;;;;;;12.18;2.53;;;16.50;92.70;;;;;;5034552;28;20608;-87
2022/12/25 06:51:58;;;;;;;6.70;2.08;;;16.50;92.70;;;;;;5033657;28;20119;-85
2022/12/25 06:54:24;;;;;;;8.35;2.63;;;16.50;92.60;;;;;;5053126;28;20025;-85
2022/12/25 06:56:49;;;;;;;10.23;2.50;;;16.50;92.60;;;;;;5050473;28;20017;-85
2022/12/25 06:59:15;;;;;;;4.85;2.13;;;16.50;92.60;;;;;;5034728;28;20043;-86
2022/12/25 07:01:45;;;;;;;4.65;2.17;;;16.50;92.60;;;;;;5033619;28;20026;-85
2022/12/25 07:04:32;;;;;;;9.88;1.90;;;16.50;92.60;;;;;;5035334;28;20033;-86
2022/12/25 07:07:01;;;;;;;5.82;2.08;;;16.60;92.60;;;;;;5051580;28;20033;-86
2022/12/25 07:09:27;;;;;;;4.13;2.15;;;16.50;92.50;;;;;;5034921;28;20021;-85
2022/12/25 07:11:53;;;;;;;4.63;2.00;;;16.60;92.50;;;;;;5049434;28;20036;-85
2022/12/25 07:14:21;;;;;;;6.10;1.77;;;16.60;92.50;;;;;;5030728;28;20437;-86
2022/12/25 07:16:46;;;;;;;2.88;1.67;;;16.60;92.50;;;;;;5030507;28;20025;-86
2022/12/25 07:19:12;;;;;;;5.43;1.73;;;16.60;92.40;;;;;;5034288;28;20029;-85
2022/12/25 07:21:38;;;;;;;7.32;1.88;;;16.60;92.50;;;;;;5033720;28;20052;-85
2022/12/25 07:24:04;;;;;;;4.60;1.40;;;16.60;92.40;;;;;;5033595;28;20025;-85
2022/12/25 07:26:29;;;;;;;5.53;1.63;;;16.60;92.40;;;;;;5029913;28;20024;-86
2022/12/25 07:28:55;;;;;;;14.02;1.95;;;16.60;92.40;;;;;;5025256;28;20512;-86
2022/12/25 07:31:21;;;;;;;15.57;2.00;;;16.60;92.40;;;;;;5019393;28;20038;-86
2022/12/25 07:33:46;;;;;;;5.30;1.45;;;16.60;92.40;;;;;;5053295;28;20079;-86
2022/12/25 07:36:13;;;;;;;6.30;2.03;;;16.60;92.40;;;;;;5050712;28;20063;-86
2022/12/25 07:38:40;;;;;;;4.97;1.60;;;16.60;92.30;;;;;;5031323;28;20424;-86
2022/12/25 07:41:10;;;;;;;6.00;1.70;;;16.60;92.30;;;;;;5025236;28;20018;-86
2022/12/25 07:43:36;;;;;;;4.28;2.00;;;16.60;92.30;;;;;;5032621;28;20025;-87
2022/12/25 07:46:01;;;;;;;1.38;1.17;;;16.60;92.20;;;;;;5028364;28;20029;-86
2022/12/25 07:48:27;;;;;;;3.33;1.45;;;16.60;92.20;;;;;;5058483;28;20021;-86
2022/12/25 07:51:01;;;;;;;2.65;1.73;;;16.70;92.20;;;;;;5029411;28;20178;-85
2022/12/25 07:53:27;;;;;;;2.78;1.55;;;16.70;92.10;;;;;;5028464;28;20097;-84
2022/12/25 07:56:02;;;;;;;2.63;1.52;;;16.70;92.10;;;;;;5049842;28;20109;-84
2022/12/25 07:58:29;;;;;;;1.83;1.27;;;16.70;92.10;;;;;;5063887;28;20025;-85
2022/12/25 08:01:00;;;;;;;3.90;1.70;;;16.70;92.00;;;;;;5063065;28;20029;-86
2022/12/25 08:03:26;;;;;;;3.97;1.30;;;16.70;92.40;;;;;;5061138;28;20025;-85
2022/12/25 08:05:51;;;;;;;7.38;1.55;;;16.70;92.10;;;;;;5027588;28;20024;-85
2022/12/25 08:08:17;;;;;;;1.15;1.05;;;16.70;92.10;;;;;;5032869;28;20033;-85
2022/12/25 08:10:46;;;;;;;1.33;1.23;;;16.70;92.10;;;;;;5028541;28;20025;-86
2022/12/25 08:13:12;;;;;;;2.28;1.20;;;16.70;92.10;;;;;;5034644;28;20028;-85
2022/12/25 08:15:38;;;;;;;2.78;1.40;;;16.70;92.10;;;;;;5031418;28;20037;-85
2022/12/25 08:18:04;;;;;;;3.53;1.40;;;16.80;92.10;;;;;;5029477;28;20397;-85
2022/12/25 08:20:29;;;;;;;1.27;1.17;;;16.80;92.00;;;;;;5048068;28;20021;-85
2022/12/25 08:22:55;;;;;;;2.53;1.17;;;16.80;92.00;;;;;;5038494;28;20028;-85
2022/12/25 08:25:20;;;;;;;1.40;1.08;;;16.90;91.90;;;;;;5029569;28;20101;-84
2022/12/25 08:27:46;;;;;;;1.27;1.10;;;16.90;91.90;;;;;;5027625;28;20059;-85
2022/12/25 08:30:12;;;;;;;1.83;1.10;;;16.90;91.90;;;;;;5032781;28;20032;-85
2022/12/25 08:32:37;;;;;;;2.35;1.58;;;16.90;91.90;;;;;;5060741;28;20425;-84
2022/12/25 08:35:03;;;;;;;0.80;0.80;;;16.90;92.00;;;;;;5031696;28;20029;-85
2022/12/25 08:37:29;;;;;;;1.20;1.10;;;16.90;91.90;;;;;;5031853;28;20032;-85
2022/12/25 08:39:54;;;;;;;2.88;1.20;;;16.90;91.90;;;;;;5031293;28;20025;-84
2022/12/25 08:42:20;;;;;;;2.28;1.38;;;16.90;91.90;;;;;;5048406;28;20051;-85
2022/12/25 08:44:45;;;;;;;1.77;1.17;;;16.90;91.90;;;;;;5031054;28;20025;-85
2022/12/25 08:47:11;;;;;;;1.92;1.20;;;16.90;91.90;;;;;;5030580;28;20035;-85
2022/12/25 08:49:36;;;;;;;1.60;1.30;;;17.00;91.90;;;;;;5047011;28;20025;-84
2022/12/25 08:52:02;;;;;;;2.15;1.30;;;17.00;91.80;;;;;;5051362;28;20033;-85
2022/12/25 08:54:29;;;;;;;1.67;1.20;;;17.00;91.70;;;;;;5040190;28;20033;-85
2022/12/25 08:56:55;;;;;;;2.13;1.02;;;17.00;91.70;;;;;;5032777;28;20025;-85
2022/12/25 08:59:20;;;;;;;6.97;1.17;;;17.00;91.80;;;;;;5041401;28;20018;-85
2022/12/25 09:01:46;;;;;;;2.30;1.40;;;17.10;91.80;;;;;;5034726;28;20076;-84
2022/12/25 09:04:12;;;;;;;2.17;1.40;;;17.10;91.80;;;;;;5032797;28;20035;-84
2022/12/25 09:06:37;;;;;;;2.47;1.33;;;17.10;91.80;;;;;;5040781;28;20048;-87
2022/12/25 09:09:03;;;;;;;2.80;1.20;;;17.10;91.90;;;;;;5049987;28;20033;-89
2022/12/25 09:11:28;;;;;;;4.10;1.50;;;17.10;91.90;;;;;;5036702;28;20029;-88
2022/12/25 09:13:54;;;;;;;5.10;1.65;;;17.20;91.90;;;;;;5034084;28;20060;-88
2022/12/25 09:16:21;;;;;;;7.88;1.92;;;17.10;91.90;;;;;;5050406;28;20080;-88
2022/12/25 09:18:46;;;;;;;3.05;1.80;;;17.20;92.00;;;;;;5030526;28;20112;-87
2022/12/25 09:21:14;;;;;;;6.03;1.67;;;17.10;92.00;;;;;;5031718;28;20060;-88
2022/12/25 09:23:40;;;;;;;5.22;1.80;;;17.20;92.00;;;;;;5033206;28;20025;-88
2022/12/25 09:26:09;;;;;;;4.18;2.20;;;17.20;92.10;;;;;;5032458;28;20128;-88
2022/12/25 09:28:34;;;;;;;9.30;1.88;;;17.20;92.10;;;;;;5031847;28;20060;-87
2022/12/25 09:31:00;;;;;;;3.63;1.88;;;17.20;92.10;;;;;;5031214;28;20056;-88
2022/12/25 09:33:26;;;;;;;6.15;2.50;;;17.20;92.10;;;;;;5028023;28;20036;-88
2022/12/25 09:35:57;;;;;;;5.60;2.63;;;17.20;92.10;;;;;;5050844;28;20047;-87
2022/12/25 09:38:23;;;;;;;5.43;2.10;;;17.20;92.10;;;;;;5048100;28;20032;-87
2022/12/25 09:41:19;;;;;;;5.85;2.58;;;17.30;92.10;;;;;;5032213;28;20085;-87
2022/12/25 09:43:53;;;;;;;7.90;2.72;;;17.30;92.10;;;;;;5029387;28;20032;-89
2022/12/25 09:46:23;;;;;;;8.13;2.92;;;17.30;92.20;;;;;;5032463;28;20028;-88
2022/12/25 09:48:58;;;;;;;7.10;2.33;;;17.30;92.20;;;;;;5029828;28;20020;-88
2022/12/25 09:51:28;;;;;;;6.45;2.90;;;17.30;92.20;;;;;;5049844;28;20025;-86
2022/12/25 09:54:01;;;;;;;8.85;2.83;;;17.30;92.30;;;;;;5032332;28;20060;-88
2022/12/25 09:56:26;;;;;;;6.28;2.60;;;17.30;92.20;;;;;;5037044;28;20029;-88
2022/12/25 09:58:53;;;;;;;4.63;2.33;;;17.30;92.30;;;;;;5037456;28;20536;-87
2022/12/25 10:01:37;;;;;;;8.20;3.63;;;17.30;92.60;;;;;;5032313;28;20052;-88
2022/12/25 10:04:33;;;;;;;7.47;2.97;;;17.30;92.30;;;;;;5061683;28;20029;-88
2022/12/25 10:07:09;;;;;;;10.05;3.10;;;17.30;92.30;;;;;;5025029;28;20029;-88
2022/12/25 10:10:01;;;;;;;5.50;2.75;;;17.40;92.30;;;;;;5032476;28;20053;-88
2022/12/25 10:12:51;;;;;;;6.38;3.08;;;17.40;92.40;;;;;;5066498;28;20071;-87
2022/12/25 10:15:24;;;;;;;;;;;17.40;92.30;;;;;;5068686;28;20025;-88
2022/12/25 10:18:27;;;;;;;7.28;3.25;;;17.40;92.40;;;;;;5048184;28;20024;-84
2022/12/25 10:20:55;;;;;;;8.40;3.10;;;17.40;92.30;;;;;;5047885;28;20029;-88
2022/12/25 10:23:31;;;;;;;10.13;3.17;;;17.40;92.30;;;;;;5034511;28;20569;-87
2022/12/25 10:25:56;;;;;;;9.00;3.55;;;17.40;92.30;;;;;;5051862;28;20025;-87
2022/12/25 10:28:31;;;;;;;6.30;3.13;;;17.40;92.30;;;;;;5035820;28;20074;-87
2022/12/25 10:31:04;;;;;;;14.20;3.60;;;17.40;92.30;;;;;;5048730;28;20027;-88
2022/12/25 10:33:30;;;;;;;5.63;2.50;;;17.50;92.30;;;;;;5052226;28;20029;-86
2022/12/25 10:35:55;;;;;;;11.98;3.42;;;17.50;92.40;;;;;;5033665;28;20144;-85
2022/12/25 10:38:21;;;;;;;9.02;4.50;;;17.50;92.20;;;;;;5035437;28;20470;-88
2022/12/25 10:41:14;;;;;;;7.53;4.65;;;17.40;86.90;;;;;;5031043;28;20025;-88
2022/12/25 10:43:48;;;;;;;6.90;3.92;;;17.20;82.40;;;;;;5050362;28;20382;-87
2022/12/25 10:46:15;;;;;;;5.60;3.72;;;17.00;81.00;;;;;;5034276;28;20048;-87
2022/12/25 10:48:54;;;;;;;3.80;3.05;;;16.90;79.30;;;;;;5069828;28;20021;-88
2022/12/25 10:51:37;;;;;;;5.20;2.83;;;16.80;78.40;;;;;;5037011;28;20032;-88
2022/12/25 10:54:27;;;;;;;3.83;2.90;;;16.70;79.20;;;;;;5035154;28;20032;-87
2022/12/25 10:56:53;;;;;;;4.78;2.90;;;16.70;78.80;;;;;;5065231;28;20633;-87
2022/12/25 10:59:19;;;;;;;5.07;3.03;;;16.60;78.70;;;;;;5033491;28;20070;-86
2022/12/25 11:01:44;;;;;;;6.60;3.60;;;16.60;79.00;;;;;;5033946;28;20020;-88
2022/12/25 11:04:23;;;;;;;4.22;3.30;;;16.50;78.50;;;;;;5036838;28;20025;-89
2022/12/25 11:07:00;;;;;;;6.10;4.22;;;16.50;78.40;;;;;;5067108;28;20090;-87
2022/12/25 11:09:26;;;;;;;5.57;3.85;;;16.40;78.00;;;;;;5035791;28;20494;-88
2022/12/25 11:11:52;;;;;;;5.30;3.38;;;16.40;78.40;;;;;;5039391;28;20025;-87
2022/12/25 11:14:19;;;;;;;7.03;4.20;;;16.30;78.40;;;;;;5068692;28;20052;-87
2022/12/25 11:16:45;;;;;;;8.40;4.15;;;16.20;78.30;;;;;;5038815;28;20021;-88
2022/12/25 11:19:37;;;;;;;5.38;3.70;;;16.20;78.50;;;;;;5032272;28;20497;-87
2022/12/25 11:22:04;;;;;;;9.63;4.65;;;16.10;79.80;;;;;;5033577;28;20037;-88
2022/12/25 11:24:31;;;;;;;6.40;4.20;;;16.10;79.10;;;;;;5034251;28;20058;-87
2022/12/25 11:27:03;;;;;;;8.35;3.90;;;16.10;79.00;;;;;;5053895;28;20028;-88
2022/12/25 11:29:39;;;;;;;5.43;3.08;;;16.00;78.60;;;;;;5035417;28;20083;-87
2022/12/25 11:32:39;;;;;;;5.45;3.33;;;15.90;78.60;;;;;;5032564;28;20025;-87
2022/12/25 11:35:12;;;;;;;8.55;4.45;;;15.90;79.20;;;;;;4955782;28;20046;-88
2022/12/25 11:37:43;;;;;;;9.38;4.38;;;15.80;79.30;;;;;;4948256;28;20440;-86
2022/12/25 11:40:16;;;;;;;7.65;4.20;;;15.80;79.20;;;;;;4971756;28;20082;-89
2022/12/25 11:42:49;;;;;;;8.52;3.50;;;15.80;79.20;;;;;;4967643;28;20023;-87
2022/12/25 11:45:34;;;;;;;4.93;2.92;;;15.80;79.60;;;;;;4971549;28;20058;-85
2022/12/25 11:48:09;;;;;;;3.25;2.50;;;15.80;79.50;;;;;;4948932;28;20500;-87
2022/12/25 11:50:42;;;;;;;3.47;2.03;;;15.70;79.40;;;;;;4972230;28;20039;-88
2022/12/25 11:53:20;;;;;;;4.70;2.70;;;15.70;79.40;;;;;;4970126;28;20047;-86
2022/12/25 11:55:56;;;;;;;3.03;2.30;;;15.70;79.60;;;;;;4958175;28;20054;-87
2022/12/25 11:58:45;;;;;;;3.50;2.47;;;15.60;79.70;;;;;;4970570;28;20035;-87
2022/12/25 12:01:35;;;;;;;3.40;2.60;;;15.60;79.70;;;;;;4957778;28;20026;-87
2022/12/25 12:04:02;;;;;;;;;;;15.60;79.80;;;;;;4965549;28;20036;-87
2022/12/25 12:06:52;;;;;;;4.32;2.80;;;15.70;80.20;;;;;;4956712;28;20391;-87
2022/12/25 12:09:24;;;;;;;4.85;2.75;;;15.70;80.00;;;;;;4974534;28;20039;-88
2022/12/25 12:12:07;;;;;;;7.00;2.90;;;15.70;79.80;;;;;;5008406;28;20033;-90
2022/12/25 12:14:56;;;;;;;5.47;2.75;;;15.80;79.60;;;;;;5038018;28;20103;-85
2022/12/25 12:17:21;;;;;;;4.75;2.40;;;15.80;79.80;;;;;;5033740;28;20017;-85
2022/12/25 12:19:47;;;;;;;3.22;2.45;;;15.80;79.80;;;;;;5034895;28;20776;-85
2022/12/25 12:22:23;;;;;;;3.55;2.20;;;15.90;80.90;;;;;;5034297;28;20028;-86
2022/12/25 12:25:03;;;;;;;3.15;2.30;;;16.00;81.90;;;;;;5030684;28;20033;-85
2022/12/25 12:27:32;;;;;;;4.68;2.38;;;16.10;82.50;;;;;;5032201;28;20029;-85
2022/12/25 12:29:59;;;;;;;3.95;1.90;;;16.10;82.70;;;;;;5030627;28;20025;-86
2022/12/25 12:32:41;;;;;;;2.50;1.88;;;16.20;83.10;;;;;;5030937;28;20051;-86
2022/12/25 12:35:24;;;;;;;6.30;2.08;;;16.20;83.40;;;;;;5032086;28;20043;-86
2022/12/25 12:38:00;;;;;;;2.88;1.70;;;16.30;83.70;;;;;;5032851;28;20052;-85
2022/12/25 12:40:37;;;;;;;4.18;1.90;;;16.30;83.80;;;;;;5026656;28;20021;-85
2022/12/25 12:43:06;;;;;;;2.53;1.75;;;16.40;84.10;;;;;;5032756;28;20474;-86
2022/12/25 12:45:36;;;;;;;3.05;1.70;;;16.40;84.20;;;;;;5032393;28;20028;-86
2022/12/25 12:48:14;;;;;;;3.28;1.60;;;16.50;84.50;;;;;;5032537;28;20045;-86
2022/12/25 12:50:40;;;;;;;2.50;1.63;;;16.50;84.70;;;;;;5032553;28;20029;-86
2022/12/25 12:53:33;;;;;;;4.63;1.75;;;16.60;85.10;;;;;;5032907;28;20033;-85
2022/12/25 12:56:17;;;;;;;3.42;1.75;;;16.60;85.30;;;;;;5023744;28;20036;-86
2022/12/25 12:58:49;;;;;;;2.95;1.48;;;16.70;85.50;;;;;;5049581;28;20032;-86
2022/12/25 13:01:25;;;;;;;1.65;1.30;;;16.70;85.60;;;;;;5032495;28;20029;-86
2022/12/25 13:04:23;;;;;;;2.80;1.75;;;16.70;85.80;;;;;;5032819;28;20025;-86
2022/12/25 13:07:03;;;;;;;1.55;1.25;;;16.80;86.00;;;;;;4945266;29;20042;-86
2022/12/25 13:09:41;;;;;;;1.60;1.15;;;16.80;86.20;;;;;;4948270;28;20066;-86
2022/12/25 13:12:07;;;;;;;3.15;1.67;;;16.80;86.40;;;;;;4949832;28;20048;-86
2022/12/25 13:14:34;;;;;;;1.85;1.30;;;16.80;86.50;;;;;;4933069;28;20031;-86
2022/12/25 13:16:59;;;;;;;2.10;1.55;;;16.90;86.60;;;;;;4949219;28;20024;-85
2022/12/25 13:19:27;;;;;;;2.95;1.40;;;16.90;86.70;;;;;;4930281;28;20035;-85
2022/12/25 13:21:58;;;;;;;2.83;1.33;;;16.90;86.80;;;;;;4931727;28;20065;-85
2022/12/25 13:24:30;;;;;;;1.50;1.20;;;17.00;86.90;;;;;;4934999;29;20042;-85
2022/12/25 13:26:55;;;;;;;2.20;1.75;;;17.00;87.00;;;;;;4954573;28;20026;-85
2022/12/25 13:29:29;;;;;;;2.53;1.17;;;17.00;87.20;;;;;;4938655;29;20385;-85
2022/12/25 13:31:56;;;;;;;2.88;1.42;;;17.10;87.30;;;;;;4953958;28;20061;-85
2022/12/25 13:34:33;;;;;;;2.00;1.60;;;17.10;87.30;;;;;;4938105;28;20027;-85
2022/12/25 13:37:05;;;;;;;1.70;1.33;;;17.10;87.50;;;;;;4939298;28;20024;-86
2022/12/25 13:39:32;;;;;;;1.83;1.40;;;17.10;87.50;;;;;;4956715;28;20023;-86
2022/12/25 13:42:04;;;;;;;2.95;1.67;;;17.20;87.70;;;;;;4937537;29;20490;-86
2022/12/25 13:44:50;;;;;;;1.48;1.10;;;17.20;87.80;;;;;;5022338;28;20116;-84
2022/12/25 13:47:19;;;;;;;6.30;1.45;;;17.20;88.40;;;;;;5067075;28;20501;-85
2022/12/25 13:49:45;;;;;;;12.88;1.60;;;17.20;88.30;;;;;;5037149;28;20047;-85
2022/12/25 13:52:17;;;;;;;6.55;1.58;;;17.30;88.50;;;;;;5033804;28;20151;-85
2022/12/25 13:54:54;;;;;;;7.57;1.77;;;17.30;88.90;;;;;;5036202;28;20040;-85
2022/12/25 13:57:23;;;;;;;3.90;1.98;;;17.40;89.40;;;;;;5034765;28;20498;-85
2022/12/25 13:59:48;;;;;;;4.25;2.35;;;17.40;89.50;;;;;;5051482;28;20051;-86
2022/12/25 14:02:21;;;;;;;6.28;2.17;;;17.40;89.80;;;;;;5033779;28;20235;-84
2022/12/25 14:04:47;;;;;;;8.63;2.25;;;17.40;90.00;;;;;;5066716;28;20051;-85
2022/12/25 14:07:19;;;;;;;9.82;3.40;;;17.40;90.00;;;;;;5034575;28;20493;-85
2022/12/25 14:09:47;;;;;;;8.65;2.38;;;17.40;90.10;;;;;;5028718;28;20029;-85
2022/12/25 14:12:13;;;;;;;15.63;2.80;;;17.40;90.10;;;;;;5034338;28;20560;-85
2022/12/25 14:14:41;;;;;;;13.07;3.40;;;17.40;90.20;;;;;;5034183;28;20025;-85
2022/12/25 14:17:10;;;;;;;6.38;2.28;;;17.50;90.40;;;;;;5032941;28;20032;-85
2022/12/25 14:19:35;;;;;;;8.90;2.58;;;17.40;90.40;;;;;;5052326;28;20028;-85
2022/12/25 14:22:15;;;;;;;7.93;2.65;;;17.40;90.50;;;;;;5032874;28;20032;-84
2022/12/25 14:24:41;;;;;;;9.48;3.03;;;17.40;90.50;;;;;;5047690;28;20390;-85
2022/12/25 14:27:32;;;;;;;12.63;2.67;;;17.50;90.70;;;;;;5039243;28;20033;-84
2022/12/25 14:29:59;;;;;;;15.40;3.00;;;17.50;90.80;;;;;;5068228;28;20370;-84
2022/12/25 14:32:29;;;;;;;11.20;3.40;;;17.50;90.90;;;;;;5063393;28;20436;-84
2022/12/25 14:34:58;;;;;;;10.27;3.47;;;17.50;91.00;;;;;;5046720;28;20028;-84
2022/12/25 14:37:28;;;;;;;9.75;2.97;;;17.50;91.00;;;;;;5049371;28;20502;-84
2022/12/25 14:39:56;;;;;;;10.68;3.50;;;17.50;91.10;;;;;;5049142;28;20021;-83
2022/12/25 14:42:28;;;;;;;12.23;3.70;;;17.50;91.10;;;;;;5035163;28;20035;-84